sensor_id;sensor_type;location;lat;lon;timestamp;pressure;altitude;pressure_sealevel;temperature;humidity
8039;BME280;4062;49.844;8.120;2023-05-31T00:01:04;99876.47;;;16.60;59.52
8039;BME280;4062;49.844;8.120;2023-05-31T00:03:07;99879.13;;;16.60;59.71
8039;BME280;4062;49.844;8.120;2023-05-31T00:05:09;99878.22;;;16.61;59.68
8039;BME280;4062;49.844;8.120;2023-05-31T00:07:10;99881.81;;;16.60;59.49
8039;BME280;4062;49.844;8.120;2023-05-31T00:09:12;99873.81;;;16.60;59.73
8039;BME280;4062;49.844;8.120;2023-05-31T00:11:13;99872.94;;;16.59;59.70
8039;BME280;4062;49.844;8.120;2023-05-31T00:13:15;99872.88;;;16.61;59.42
8039;BME280;4062;49.844;8.120;2023-05-31T00:15:16;99872.94;;;16.59;59.59
8039;BME280;4062;49.844;8.120;2023-05-31T00:17:18;99875.63;;;16.59;59.70
8039;BME280;4062;49.844;8.120;2023-05-31T00:19:19;99880.88;;;16.61;59.57
8039;BME280;4062;49.844;8.120;2023-05-31T00:21:21;99875.63;;;16.59;59.72
8039;BME280;4062;49.844;8.120;2023-05-31T00:23:22;99878.22;;;16.61;59.62
8039;BME280;4062;49.844;8.120;2023-05-31T00:25:24;99880.94;;;16.59;59.67
8039;BME280;4062;49.844;8.120;2023-05-31T00:27:27;99872.88;;;16.61;59.57
8039;BME280;4062;49.844;8.120;2023-05-31T00:29:31;99870.28;;;16.59;59.56
8039;BME280;4062;49.844;8.120;2023-05-31T00:31:33;99874.72;;;16.59;59.47
8039;BME280;4062;49.844;8.120;2023-05-31T00:33:34;99871.13;;;16.60;59.63
8039;BME280;4062;49.844;8.120;2023-05-31T00:35:36;99872.88;;;16.61;59.57
8039;BME280;4062;49.844;8.120;2023-05-31T00:37:39;99865.81;;;16.60;59.56
8039;BME280;4062;49.844;8.120;2023-05-31T00:39:44;99870.28;;;16.59;59.65
8039;BME280;4062;49.844;8.120;2023-05-31T00:41:45;99864.06;;;16.59;59.58
8039;BME280;4062;49.844;8.120;2023-05-31T00:43:46;99863.13;;;16.60;59.67
8039;BME280;4062;49.844;8.120;2023-05-31T00:45:49;99869.41;;;16.59;59.62
8039;BME280;4062;49.844;8.120;2023-05-31T00:47:54;99873.81;;;16.60;59.72
8039;BME280;4062;49.844;8.120;2023-05-31T00:49:56;99867.63;;;16.59;59.56
8039;BME280;4062;49.844;8.120;2023-05-31T00:51:58;99870.22;;;16.61;59.60
8039;BME280;4062;49.844;8.120;2023-05-31T00:54:01;99875.63;;;16.59;59.54
8039;BME280;4062;49.844;8.120;2023-05-31T00:56:03;99872.88;;;16.61;59.64
8039;BME280;4062;49.844;8.120;2023-05-31T00:58:05;99877.31;;;16.60;59.58
8039;BME280;4062;49.844;8.120;2023-05-31T01:00:08;99875.53;;;16.61;59.67
8039;BME280;4062;49.844;8.120;2023-05-31T01:02:11;99874.72;;;16.59;59.60
8039;BME280;4062;49.844;8.120;2023-05-31T01:04:21;99875.63;;;16.59;59.73
8039;BME280;4062;49.844;8.120;2023-05-31T01:06:24;99873.81;;;16.60;59.68
8039;BME280;4062;49.844;8.120;2023-05-31T01:08:26;99872.94;;;16.59;59.68
8039;BME280;4062;49.844;8.120;2023-05-31T01:10:29;99871.13;;;16.60;59.71
8039;BME280;4062;49.844;8.120;2023-05-31T01:15:35;99873.81;;;16.60;59.59
8039;BME280;4062;49.844;8.120;2023-05-31T01:17:46;99864.94;;;16.59;59.36
8039;BME280;4062;49.844;8.120;2023-05-31T01:19:54;99869.41;;;16.59;59.48
8039;BME280;4062;49.844;8.120;2023-05-31T01:22:45;99867.63;;;16.59;59.63
8039;BME280;4062;49.844;8.120;2023-05-31T01:27:06;99860.47;;;16.60;59.71
8039;BME280;4062;49.844;8.120;2023-05-31T01:29:19;99866.66;;;16.60;59.69
8039;BME280;4062;49.844;8.120;2023-05-31T01:31:25;99860.47;;;16.60;59.69
8039;BME280;4062;49.844;8.120;2023-05-31T01:33:28;99868.47;;;16.60;59.62
8039;BME280;4062;49.844;8.120;2023-05-31T01:35:31;99865.81;;;16.60;59.58
8039;BME280;4062;49.844;8.120;2023-05-31T01:37:33;99863.13;;;16.60;59.55
8039;BME280;4062;49.844;8.120;2023-05-31T01:39:34;99860.47;;;16.60;59.67
8039;BME280;4062;49.844;8.120;2023-05-31T01:41:39;99862.19;;;16.61;59.71
8039;BME280;4062;49.844;8.120;2023-05-31T01:43:43;99863.13;;;16.60;59.67
8039;BME280;4062;49.844;8.120;2023-05-31T01:45:46;99857.78;;;16.60;59.56
8039;BME280;4062;49.844;8.120;2023-05-31T01:47:58;99867.53;;;16.61;59.55
8039;BME280;4062;49.844;8.120;2023-05-31T01:49:59;99863.13;;;16.60;59.71
8039;BME280;4062;49.844;8.120;2023-05-31T01:52:05;99863.06;;;16.61;59.52
8039;BME280;4062;49.844;8.120;2023-05-31T01:54:08;99864.06;;;16.59;59.75
8039;BME280;4062;49.844;8.120;2023-05-31T01:56:15;99860.47;;;16.60;59.59
8039;BME280;4062;49.844;8.120;2023-05-31T01:58:17;99869.41;;;16.59;59.53
8039;BME280;4062;49.844;8.120;2023-05-31T02:00:20;99860.47;;;16.60;59.74
8039;BME280;4062;49.844;8.120;2023-05-31T02:02:23;99861.31;;;16.60;59.54
8039;BME280;4062;49.844;8.120;2023-05-31T02:04:25;99864.06;;;16.59;59.53
8039;BME280;4062;49.844;8.120;2023-05-31T02:06:26;99865.81;;;16.60;59.62
8039;BME280;4062;49.844;8.120;2023-05-31T02:08:31;99872.94;;;16.59;59.72
8039;BME280;4062;49.844;8.120;2023-05-31T02:10:35;99871.13;;;16.60;59.67
8039;BME280;4062;49.844;8.120;2023-05-31T02:12:37;99867.63;;;16.59;59.61
8039;BME280;4062;49.844;8.120;2023-05-31T02:14:39;99870.22;;;16.61;59.53
8039;BME280;4062;49.844;8.120;2023-05-31T02:16:41;99864.88;;;16.61;59.55
8039;BME280;4062;49.844;8.120;2023-05-31T02:18:42;99871.13;;;16.60;59.59
8039;BME280;4062;49.844;8.120;2023-05-31T02:20:44;99867.63;;;16.59;59.48
8039;BME280;4062;49.844;8.120;2023-05-31T02:22:52;99865.81;;;16.60;59.55
8039;BME280;4062;49.844;8.120;2023-05-31T02:24:53;99873.81;;;16.60;59.78
8039;BME280;4062;49.844;8.120;2023-05-31T02:26:54;99873.81;;;16.60;59.53
8039;BME280;4062;49.844;8.120;2023-05-31T02:29:00;99871.13;;;16.60;59.72
8039;BME280;4062;49.844;8.120;2023-05-31T02:31:01;99873.81;;;16.60;59.63
8039;BME280;4062;49.844;8.120;2023-05-31T02:33:05;99872.06;;;16.59;59.74
8039;BME280;4062;49.844;8.120;2023-05-31T02:35:09;99880.00;;;16.60;59.68
8039;BME280;4062;49.844;8.120;2023-05-31T02:37:11;99881.81;;;16.60;59.68
8039;BME280;4062;49.844;8.120;2023-05-31T02:39:12;99880.00;;;16.60;59.77
8039;BME280;4062;49.844;8.120;2023-05-31T02:41:16;99886.22;;;16.61;59.53
8039;BME280;4062;49.844;8.120;2023-05-31T02:43:18;99874.72;;;16.59;59.73
8039;BME280;4062;49.844;8.120;2023-05-31T02:45:19;99876.47;;;16.60;59.59
8039;BME280;4062;49.844;8.120;2023-05-31T02:47:21;99878.22;;;16.61;59.66
8039;BME280;4062;49.844;8.120;2023-05-31T02:49:22;99883.63;;;16.59;59.68
8039;BME280;4062;49.844;8.120;2023-05-31T02:51:27;99878.28;;;16.59;59.60
8039;BME280;4062;49.844;8.120;2023-05-31T02:53:50;99873.81;;;16.60;59.58
8039;BME280;4062;49.844;8.120;2023-05-31T02:55:56;99874.72;;;16.59;59.70
8039;BME280;4062;49.844;8.120;2023-05-31T02:57:58;99870.28;;;16.59;59.56
8039;BME280;4062;49.844;8.120;2023-05-31T03:00:01;99871.13;;;16.60;59.71
8039;BME280;4062;49.844;8.120;2023-05-31T03:02:12;99871.13;;;16.60;59.59
8039;BME280;4062;49.844;8.120;2023-05-31T03:04:17;99875.53;;;16.61;59.55
8039;BME280;4062;49.844;8.120;2023-05-31T03:06:18;99872.88;;;16.61;59.55
8039;BME280;4062;49.844;8.120;2023-05-31T03:08:21;99873.72;;;16.61;59.60
8039;BME280;4062;49.844;8.120;2023-05-31T03:10:25;99872.94;;;16.59;59.60
8039;BME280;4062;49.844;8.120;2023-05-31T03:12:27;99871.13;;;16.60;59.75
8039;BME280;4062;49.844;8.120;2023-05-31T03:14:28;99878.22;;;16.61;59.74
8039;BME280;4062;49.844;8.120;2023-05-31T03:16:30;99881.72;;;16.61;59.72
8039;BME280;4062;49.844;8.120;2023-05-31T03:18:31;99875.63;;;16.59;59.52
8039;BME280;4062;49.844;8.120;2023-05-31T03:20:33;99878.22;;;16.61;59.53
8039;BME280;4062;49.844;8.120;2023-05-31T03:22:35;99883.63;;;16.59;59.68
8039;BME280;4062;49.844;8.120;2023-05-31T03:24:37;99886.28;;;16.59;59.74
8039;BME280;4062;49.844;8.120;2023-05-31T03:26:39;99879.13;;;16.60;59.68
8039;BME280;4062;49.844;8.120;2023-05-31T03:28:40;99876.47;;;16.60;59.58
8039;BME280;4062;49.844;8.120;2023-05-31T03:30:42;99874.72;;;16.59;59.50
8039;BME280;4062;49.844;8.120;2023-05-31T03:32:47;99884.47;;;16.60;59.69
8039;BME280;4062;49.844;8.120;2023-05-31T03:34:49;99881.81;;;16.60;59.62
8039;BME280;4062;49.844;8.120;2023-05-31T03:36:50;99878.28;;;16.59;59.72
8039;BME280;4062;49.844;8.120;2023-05-31T03:39:04;99886.28;;;16.59;59.62
8039;BME280;4062;49.844;8.120;2023-05-31T03:41:07;99893.34;;;16.60;59.60
8039;BME280;4062;49.844;8.120;2023-05-31T03:43:10;99888.97;;;16.59;59.79
8039;BME280;4062;49.844;8.120;2023-05-31T03:45:13;99894.22;;;16.61;59.61
8039;BME280;4062;49.844;8.120;2023-05-31T03:47:15;99885.31;;;16.60;59.61
8039;BME280;4062;49.844;8.120;2023-05-31T03:49:17;99893.34;;;16.60;59.65
8039;BME280;4062;49.844;8.120;2023-05-31T03:51:19;99894.22;;;16.61;59.66
8039;BME280;4062;49.844;8.120;2023-05-31T03:53:21;99896.88;;;16.61;59.48
8039;BME280;4062;49.844;8.120;2023-05-31T03:55:23;99892.41;;;16.61;59.66
8039;BME280;4062;49.844;8.120;2023-05-31T03:57:26;99896.00;;;16.60;59.60
8039;BME280;4062;49.844;8.120;2023-05-31T03:59:27;99888.88;;;16.61;59.52
8039;BME280;4062;49.844;8.120;2023-05-31T04:01:30;99892.47;;;16.60;59.59
8039;BME280;4062;49.844;8.120;2023-05-31T04:03:33;99891.63;;;16.59;59.69
8039;BME280;4062;49.844;8.120;2023-05-31T04:05:35;99890.66;;;16.60;59.72
8039;BME280;4062;49.844;8.120;2023-05-31T04:07:36;99897.81;;;16.60;59.75
8039;BME280;4062;49.844;8.120;2023-05-31T04:09:37;99900.41;;;16.61;59.60
8039;BME280;4062;49.844;8.120;2023-05-31T04:11:39;99895.16;;;16.60;59.67
8039;BME280;4062;49.844;8.120;2023-05-31T04:13:40;99903.16;;;16.60;59.50
8039;BME280;4062;49.844;8.120;2023-05-31T04:15:42;99903.06;;;16.61;59.68
8039;BME280;4062;49.844;8.120;2023-05-31T04:17:43;99908.47;;;16.60;59.63
8039;BME280;4062;49.844;8.120;2023-05-31T04:19:44;99904.88;;;16.61;59.65
8039;BME280;4062;49.844;8.120;2023-05-31T04:21:46;99905.81;;;16.60;59.54
8039;BME280;4062;49.844;8.120;2023-05-31T04:23:47;99902.28;;;16.59;59.74
8039;BME280;4062;49.844;8.120;2023-05-31T04:25:49;99909.34;;;16.60;59.61
8039;BME280;4062;49.844;8.120;2023-05-31T04:27:51;99910.28;;;16.59;59.60
8039;BME280;4062;49.844;8.120;2023-05-31T04:29:52;99909.34;;;16.60;59.69
8039;BME280;4062;49.844;8.120;2023-05-31T04:31:58;99904.97;;;16.59;59.46
8039;BME280;4062;49.844;8.120;2023-05-31T04:34:01;99904.88;;;16.61;59.53
8039;BME280;4062;49.844;8.120;2023-05-31T04:36:05;99907.56;;;16.61;59.55
8039;BME280;4062;49.844;8.120;2023-05-31T04:38:09;99906.66;;;16.60;59.53
8039;BME280;4062;49.844;8.120;2023-05-31T04:40:11;99912.91;;;16.61;59.60
8039;BME280;4062;49.844;8.120;2023-05-31T04:42:12;99907.56;;;16.61;59.60
8039;BME280;4062;49.844;8.120;2023-05-31T04:44:15;99901.34;;;16.60;59.68
8039;BME280;4062;49.844;8.120;2023-05-31T04:46:18;99908.41;;;16.61;59.65
8039;BME280;4062;49.844;8.120;2023-05-31T04:48:20;99907.56;;;16.61;59.71
8039;BME280;4062;49.844;8.120;2023-05-31T04:50:23;99897.81;;;16.60;59.53
8039;BME280;4062;49.844;8.120;2023-05-31T04:52:29;99911.06;;;16.61;59.84
8039;BME280;4062;49.844;8.120;2023-05-31T04:54:32;99904.88;;;16.61;59.61
8039;BME280;4062;49.844;8.120;2023-05-31T04:56:33;99912.91;;;16.61;59.77
8039;BME280;4062;49.844;8.120;2023-05-31T04:58:35;99910.22;;;16.61;59.54
8039;BME280;4062;49.844;8.120;2023-05-31T05:00:37;99912.97;;;16.59;59.61
8039;BME280;4062;49.844;8.120;2023-05-31T05:02:45;99912.91;;;16.61;59.59
8039;BME280;4062;49.844;8.120;2023-05-31T05:04:48;99924.41;;;16.61;59.75
8039;BME280;4062;49.844;8.120;2023-05-31T05:06:51;99918.31;;;16.59;59.53
8039;BME280;4062;49.844;8.120;2023-05-31T05:08:53;99916.41;;;16.61;59.58
8039;BME280;4062;49.844;8.120;2023-05-31T05:10:54;99921.75;;;16.61;59.57
8039;BME280;4062;49.844;8.120;2023-05-31T05:12:55;99925.31;;;16.62;59.60
8039;BME280;4062;49.844;8.120;2023-05-31T05:15:00;99922.63;;;16.62;59.58
8039;BME280;4062;49.844;8.120;2023-05-31T05:17:03;99923.56;;;16.61;59.67
8039;BME280;4062;49.844;8.120;2023-05-31T05:19:05;99924.41;;;16.61;59.71
8039;BME280;4062;49.844;8.120;2023-05-31T05:21:08;99932.41;;;16.61;59.72
8039;BME280;4062;49.844;8.120;2023-05-31T05:23:12;99927.16;;;16.60;59.75
8039;BME280;4062;49.844;8.120;2023-05-31T05:25:14;99928.91;;;16.61;59.58
8039;BME280;4062;49.844;8.120;2023-05-31T05:27:17;99933.31;;;16.62;59.68
8039;BME280;4062;49.844;8.120;2023-05-31T05:29:22;99933.31;;;16.62;59.72
8039;BME280;4062;49.844;8.120;2023-05-31T05:31:24;99932.41;;;16.61;59.74
8039;BME280;4062;49.844;8.120;2023-05-31T05:33:28;99940.41;;;16.61;59.70
8039;BME280;4062;49.844;8.120;2023-05-31T05:35:30;99928.91;;;16.61;59.54
8039;BME280;4062;49.844;8.120;2023-05-31T05:37:32;99930.63;;;16.62;59.57
8039;BME280;4062;49.844;8.120;2023-05-31T05:39:34;99927.97;;;16.62;59.72
8039;BME280;4062;49.844;8.120;2023-05-31T05:41:35;99927.97;;;16.62;59.70
8039;BME280;4062;49.844;8.120;2023-05-31T05:43:41;99926.22;;;16.61;59.69
8039;BME280;4062;49.844;8.120;2023-05-31T05:45:47;99935.09;;;16.61;59.66
8039;BME280;4062;49.844;8.120;2023-05-31T05:47:49;99929.75;;;16.61;59.59
8039;BME280;4062;49.844;8.120;2023-05-31T05:50:02;99931.56;;;16.61;59.64
8039;BME280;4062;49.844;8.120;2023-05-31T05:52:05;99926.22;;;16.61;59.51
8039;BME280;4062;49.844;8.120;2023-05-31T05:54:06;99927.09;;;16.61;59.66
8039;BME280;4062;49.844;8.120;2023-05-31T05:56:09;99935.97;;;16.62;59.52
8039;BME280;4062;49.844;8.120;2023-05-31T05:58:24;99937.75;;;16.61;59.54
8039;BME280;4062;49.844;8.120;2023-05-31T06:00:52;99934.16;;;16.62;59.46
8039;BME280;4062;49.844;8.120;2023-05-31T06:02:54;99938.66;;;16.62;59.55
8039;BME280;4062;49.844;8.120;2023-05-31T06:04:55;99933.31;;;16.62;59.72
8039;BME280;4062;49.844;8.120;2023-05-31T06:06:58;99933.31;;;16.62;59.67
8039;BME280;4062;49.844;8.120;2023-05-31T06:09:00;99933.31;;;16.62;59.51
8039;BME280;4062;49.844;8.120;2023-05-31T06:11:01;99927.97;;;16.62;59.67
8039;BME280;4062;49.844;8.120;2023-05-31T06:13:06;99928.81;;;16.62;59.64
8039;BME280;4062;49.844;8.120;2023-05-31T06:15:09;99936.81;;;16.62;59.56
8039;BME280;4062;49.844;8.120;2023-05-31T06:17:10;99930.63;;;16.62;59.70
8039;BME280;4062;49.844;8.120;2023-05-31T06:19:20;99940.38;;;16.63;59.67
8039;BME280;4062;49.844;8.120;2023-05-31T06:21:24;99935.91;;;16.63;59.67
8039;BME280;4062;49.844;8.120;2023-05-31T06:23:26;99938.56;;;16.63;59.71
8039;BME280;4062;49.844;8.120;2023-05-31T06:25:28;99931.44;;;16.64;59.66
8039;BME280;4062;49.844;8.120;2023-05-31T06:27:30;99929.63;;;16.64;59.69
8039;BME280;4062;49.844;8.120;2023-05-31T06:29:32;99942.97;;;16.64;59.59
8039;BME280;4062;49.844;8.120;2023-05-31T06:31:43;99931.38;;;16.65;59.57
8039;BME280;4062;49.844;8.120;2023-05-31T06:33:44;99929.56;;;16.66;59.64
8039;BME280;4062;49.844;8.120;2023-05-31T06:35:58;99939.31;;;16.67;59.62
8039;BME280;4062;49.844;8.120;2023-05-31T06:38:07;99937.53;;;16.67;59.41
8039;BME280;4062;49.844;8.120;2023-05-31T06:40:19;99939.19;;;16.70;59.42
8039;BME280;4062;49.844;8.120;2023-05-31T06:42:20;99943.59;;;16.71;59.32
8039;BME280;4062;49.844;8.120;2023-05-31T06:44:28;99946.13;;;16.74;59.29
8039;BME280;4062;49.844;8.120;2023-05-31T06:46:42;99946.09;;;16.76;59.21
8039;BME280;4062;49.844;8.120;2023-05-31T06:49:03;99944.28;;;16.76;59.34
8039;BME280;4062;49.844;8.120;2023-05-31T06:51:19;99939.75;;;16.78;59.16
8039;BME280;4062;49.844;8.120;2023-05-31T06:54:01;99940.56;;;16.80;59.19
8039;BME280;4062;49.844;8.120;2023-05-31T06:56:07;99936.06;;;16.81;59.08
8039;BME280;4062;49.844;8.120;2023-05-31T06:58:13;99936.06;;;16.81;59.10
8039;BME280;4062;49.844;8.120;2023-05-31T07:00:16;99934.28;;;16.81;59.07
8039;BME280;4062;49.844;8.120;2023-05-31T07:02:20;99938.69;;;16.82;59.19
8039;BME280;4062;49.844;8.120;2023-05-31T07:04:24;99922.63;;;16.84;59.25
8039;BME280;4062;49.844;8.120;2023-05-31T07:06:32;99933.22;;;16.85;59.02
8039;BME280;4062;49.844;8.120;2023-05-31T07:08:33;99934.09;;;16.86;59.12
8039;BME280;4062;49.844;8.120;2023-05-31T07:10:54;99934.97;;;16.86;59.08
8039;BME280;4062;49.844;8.120;2023-05-31T07:12:56;99931.34;;;16.87;59.06
8039;BME280;4062;49.844;8.120;2023-05-31T07:14:57;99924.28;;;16.86;59.03
8039;BME280;4062;49.844;8.120;2023-05-31T07:16:59;99922.50;;;16.87;58.93
8039;BME280;4062;49.844;8.120;2023-05-31T07:19:04;99930.50;;;16.87;59.08
8039;BME280;4062;49.844;8.120;2023-05-31T07:21:08;99920.69;;;16.87;59.16
8039;BME280;4062;49.844;8.120;2023-05-31T07:23:09;99923.34;;;16.87;59.05
8039;BME280;4062;49.844;8.120;2023-05-31T07:27:41;99922.50;;;16.87;59.04
8039;BME280;4062;49.844;8.120;2023-05-31T07:29:42;99918.00;;;16.87;59.06
8039;BME280;4062;49.844;8.120;2023-05-31T07:31:44;99918.88;;;16.88;59.05
8039;BME280;4062;49.844;8.120;2023-05-31T07:33:51;99916.19;;;16.88;59.05
8039;BME280;4062;49.844;8.120;2023-05-31T07:35:55;99915.34;;;16.87;59.00
8039;BME280;4062;49.844;8.120;2023-05-31T07:37:56;99917.09;;;16.88;58.98
8039;BME280;4062;49.844;8.120;2023-05-31T07:39:58;99912.69;;;16.87;58.94
8039;BME280;4062;49.844;8.120;2023-05-31T07:42:04;99907.34;;;16.87;59.21
8039;BME280;4062;49.844;8.120;2023-05-31T07:44:05;99902.84;;;16.88;59.25
8039;BME280;4062;49.844;8.120;2023-05-31T07:46:07;99900.25;;;16.86;59.09
8039;BME280;4062;49.844;8.120;2023-05-31T07:48:08;99906.50;;;16.87;59.27
8039;BME280;4062;49.844;8.120;2023-05-31T07:50:10;99902.84;;;16.88;59.22
8039;BME280;4062;49.844;8.120;2023-05-31T07:52:14;99906.41;;;16.88;59.17
8039;BME280;4062;49.844;8.120;2023-05-31T07:54:24;99904.56;;;16.91;59.12
8039;BME280;4062;49.844;8.120;2023-05-31T07:56:26;99899.22;;;16.91;59.11
8039;BME280;4062;49.844;8.120;2023-05-31T07:58:30;99898.28;;;16.92;59.17
8039;BME280;4062;49.844;8.120;2023-05-31T08:00:34;99900.97;;;16.92;59.17
8039;BME280;4062;49.844;8.120;2023-05-31T08:02:36;99901.88;;;16.91;59.19
8039;BME280;4062;49.844;8.120;2023-05-31T08:04:38;99892.06;;;16.91;59.02
8039;BME280;4062;49.844;8.120;2023-05-31T08:06:39;99892.06;;;16.91;59.10
8039;BME280;4062;49.844;8.120;2023-05-31T08:08:54;99887.66;;;16.90;59.11
8039;BME280;4062;49.844;8.120;2023-05-31T08:11:14;99892.13;;;16.90;59.13
8039;BME280;4062;49.844;8.120;2023-05-31T08:13:43;99887.66;;;16.90;59.05
8039;BME280;4062;49.844;8.120;2023-05-31T08:16:01;99893.91;;;16.89;59.14
8039;BME280;4062;49.844;8.120;2023-05-31T08:18:03;99889.47;;;16.90;59.07
8039;BME280;4062;49.844;8.120;2023-05-31T08:20:05;99892.13;;;16.90;59.03
8039;BME280;4062;49.844;8.120;2023-05-31T08:22:11;99884.13;;;16.90;58.98
8039;BME280;4062;49.844;8.120;2023-05-31T08:24:15;99885.88;;;16.91;59.03
8039;BME280;4062;49.844;8.120;2023-05-31T08:26:20;99884.13;;;16.90;59.26
8039;BME280;4062;49.844;8.120;2023-05-31T08:28:24;99880.56;;;16.89;59.08
8039;BME280;4062;49.844;8.120;2023-05-31T08:30:31;99888.59;;;16.89;59.23
8039;BME280;4062;49.844;8.120;2023-05-31T08:32:38;99886.84;;;16.88;59.07
8039;BME280;4062;49.844;8.120;2023-05-31T08:34:39;99887.81;;;16.87;59.07
8039;BME280;4062;49.844;8.120;2023-05-31T08:36:41;99891.31;;;16.87;59.26
8039;BME280;4062;49.844;8.120;2023-05-31T08:38:43;99884.25;;;16.86;59.10
8039;BME280;4062;49.844;8.120;2023-05-31T08:40:44;99888.66;;;16.87;59.29
8039;BME280;4062;49.844;8.120;2023-05-31T08:43:00;99887.81;;;16.87;59.14
8039;BME280;4062;49.844;8.120;2023-05-31T08:45:03;99890.47;;;16.87;59.12
8039;BME280;4062;49.844;8.120;2023-05-31T08:47:17;99886.91;;;16.86;59.32
8039;BME280;4062;49.844;8.120;2023-05-31T08:49:20;99885.13;;;16.87;59.14
8039;BME280;4062;49.844;8.120;2023-05-31T08:51:24;99880.66;;;16.87;59.38
8039;BME280;4062;49.844;8.120;2023-05-31T08:53:39;99887.81;;;16.87;59.14
8039;BME280;4062;49.844;8.120;2023-05-31T08:56:01;99883.25;;;16.89;59.24
8039;BME280;4062;49.844;8.120;2023-05-31T08:58:05;99880.56;;;16.89;59.21
8039;BME280;4062;49.844;8.120;2023-05-31T09:00:09;99880.56;;;16.89;59.19
8039;BME280;4062;49.844;8.120;2023-05-31T09:02:14;99891.25;;;16.89;59.12
8039;BME280;4062;49.844;8.120;2023-05-31T09:04:17;99884.97;;;16.90;59.05
8039;BME280;4062;49.844;8.120;2023-05-31T09:06:22;99880.56;;;16.89;59.20
8039;BME280;4062;49.844;8.120;2023-05-31T09:08:42;99881.47;;;16.90;59.32
8039;BME280;4062;49.844;8.120;2023-05-31T09:11:02;99891.22;;;16.91;59.31
8039;BME280;4062;49.844;8.120;2023-05-31T09:13:13;99878.78;;;16.90;59.30
8039;BME280;4062;49.844;8.120;2023-05-31T09:15:14;99887.66;;;16.90;59.12
8039;BME280;4062;49.844;8.120;2023-05-31T09:17:20;99878.78;;;16.90;59.24
8039;BME280;4062;49.844;8.120;2023-05-31T09:19:29;99875.19;;;16.91;59.08
8039;BME280;4062;49.844;8.120;2023-05-31T09:21:49;99877.88;;;16.91;59.42
8039;BME280;4062;49.844;8.120;2023-05-31T09:23:59;99877.88;;;16.91;59.10
8039;BME280;4062;49.844;8.120;2023-05-31T09:26:12;99873.47;;;16.90;59.33
8039;BME280;4062;49.844;8.120;2023-05-31T09:28:23;99868.13;;;16.90;59.05
8039;BME280;4062;49.844;8.120;2023-05-31T09:30:27;99872.56;;;16.89;59.23
8039;BME280;4062;49.844;8.120;2023-05-31T09:32:30;99856.56;;;16.89;59.08
8039;BME280;4062;49.844;8.120;2023-05-31T09:34:32;99857.44;;;16.90;59.27
8039;BME280;4062;49.844;8.120;2023-05-31T09:36:36;99849.47;;;16.88;59.27
8039;BME280;4062;49.844;8.120;2023-05-31T09:38:43;99856.56;;;16.89;59.10
8039;BME280;4062;49.844;8.120;2023-05-31T09:40:46;99855.69;;;16.88;59.12
8039;BME280;4062;49.844;8.120;2023-05-31T09:42:49;99848.56;;;16.89;59.36
8039;BME280;4062;49.844;8.120;2023-05-31T09:44:59;99850.28;;;16.90;59.16
8039;BME280;4062;49.844;8.120;2023-05-31T09:47:10;99847.63;;;16.90;59.34
8039;BME280;4062;49.844;8.120;2023-05-31T09:49:11;99848.50;;;16.91;59.30
8039;BME280;4062;49.844;8.120;2023-05-31T09:51:13;99844.94;;;16.90;59.21
8039;BME280;4062;49.844;8.120;2023-05-31T09:53:20;99840.50;;;16.91;59.24
8039;BME280;4062;49.844;8.120;2023-05-31T09:55:21;99843.16;;;16.91;59.04
8039;BME280;4062;49.844;8.120;2023-05-31T09:57:33;99837.84;;;16.91;59.32
8039;BME280;4062;49.844;8.120;2023-05-31T09:59:55;99836.00;;;16.91;59.31
8039;BME280;4062;49.844;8.120;2023-05-31T10:02:00;99835.16;;;16.91;59.06
8039;BME280;4062;49.844;8.120;2023-05-31T10:04:13;99835.16;;;16.91;59.10
8039;BME280;4062;49.844;8.120;2023-05-31T10:06:19;99841.34;;;16.91;59.19
8039;BME280;4062;49.844;8.120;2023-05-31T10:08:23;99832.50;;;16.91;59.11
8039;BME280;4062;49.844;8.120;2023-05-31T10:10:24;99839.56;;;16.92;59.22
8039;BME280;4062;49.844;8.120;2023-05-31T10:12:26;99828.94;;;16.90;59.11
8039;BME280;4062;49.844;8.120;2023-05-31T10:14:36;99837.84;;;16.91;59.33
8039;BME280;4062;49.844;8.120;2023-05-31T10:16:48;99828.88;;;16.92;59.08
8039;BME280;4062;49.844;8.120;2023-05-31T10:19:04;99820.00;;;16.91;59.29
8039;BME280;4062;49.844;8.120;2023-05-31T10:21:08;99821.81;;;16.91;59.29
8039;BME280;4062;49.844;8.120;2023-05-31T10:23:18;99830.69;;;16.91;59.17
8039;BME280;4062;49.844;8.120;2023-05-31T10:25:29;99830.69;;;16.91;59.10
8039;BME280;4062;49.844;8.120;2023-05-31T10:27:39;99823.56;;;16.92;59.08
8039;BME280;4062;49.844;8.120;2023-05-31T10:29:51;99826.22;;;16.92;59.09
8039;BME280;4062;49.844;8.120;2023-05-31T10:31:56;99812.00;;;16.91;59.07
8039;BME280;4062;49.844;8.120;2023-05-31T10:34:18;99820.88;;;16.92;59.13
8039;BME280;4062;49.844;8.120;2023-05-31T10:36:20;99817.31;;;16.91;59.20
8039;BME280;4062;49.844;8.120;2023-05-31T10:38:30;99813.72;;;16.92;59.15
8039;BME280;4062;49.844;8.120;2023-05-31T10:40:53;99807.53;;;16.92;59.41
8039;BME280;4062;49.844;8.120;2023-05-31T10:45:45;99801.31;;;16.91;59.24
8039;BME280;4062;49.844;8.120;2023-05-31T10:48:29;99807.53;;;16.92;59.32
8039;BME280;4062;49.844;8.120;2023-05-31T10:50:34;99796.88;;;16.92;59.18
8039;BME280;4062;49.844;8.120;2023-05-31T10:52:38;99803.13;;;16.91;59.25
8039;BME280;4062;49.844;8.120;2023-05-31T10:57:30;99800.47;;;16.91;59.19
8039;BME280;4062;49.844;8.120;2023-05-31T10:59:44;99796.91;;;16.90;59.07
8039;BME280;4062;49.844;8.120;2023-05-31T11:01:59;99796.91;;;16.90;59.04
8039;BME280;4062;49.844;8.120;2023-05-31T11:04:27;99794.19;;;16.92;59.16
8039;BME280;4062;49.844;8.120;2023-05-31T11:06:39;99789.78;;;16.91;59.12
8039;BME280;4062;49.844;8.120;2023-05-31T11:16:05;99788.91;;;16.90;59.07
8039;BME280;4062;49.844;8.120;2023-05-31T11:18:28;99782.72;;;16.90;59.18
8039;BME280;4062;49.844;8.120;2023-05-31T11:20:34;99789.78;;;16.91;59.21
8039;BME280;4062;49.844;8.120;2023-05-31T11:22:37;99784.44;;;16.91;59.05
8039;BME280;4062;49.844;8.120;2023-05-31T11:24:53;99781.78;;;16.91;59.31
8039;BME280;4062;49.844;8.120;2023-05-31T11:27:00;99788.91;;;16.90;59.11
8039;BME280;4062;49.844;8.120;2023-05-31T11:29:01;99783.56;;;16.90;59.26
8039;BME280;4062;49.844;8.120;2023-05-31T11:34:21;99772.88;;;16.90;59.27
8039;BME280;4062;49.844;8.120;2023-05-31T11:36:31;99773.78;;;16.91;59.25
8039;BME280;4062;49.844;8.120;2023-05-31T11:38:47;99768.47;;;16.89;59.20
8039;BME280;4062;49.844;8.120;2023-05-31T11:40:54;99769.38;;;16.90;59.24
8039;BME280;4062;49.844;8.120;2023-05-31T11:43:12;99755.13;;;16.89;59.20
8039;BME280;4062;49.844;8.120;2023-05-31T11:45:40;99769.38;;;16.90;59.19
8039;BME280;4062;49.844;8.120;2023-05-31T11:51:02;99751.63;;;16.88;59.20